SYRK1: Arkansas R at Syracuse, KS

                                SHEF ID:       SYRK1     ARKANSAS R AT SYRACUSE, KS
STATION TYPE:
Regulating: Stage = 10.00, Flow = 2000

PRECIP STAGE RIV-FLOW BAT-LOAD
in ft cfs volt
Ccp-Rev Ccp-Rev Ccp-Rev Ccp-Rev
(America/Chicago)
07/31 00:00 0.00 5.99 359 12.71
07/31 01:00 0.00 6.00 361 12.65
07/31 02:00 0.00 6.00 361 12.65
07/31 03:00 0.00 6.04 369 12.65
07/31 04:00 0.00 6.15 392 12.65
07/31 05:00 0.00 5.96 353 12.65
07/31 06:00 0.00 6.00 361 12.60
07/31 07:00 0.00 6.03 367 12.60
07/31 08:00 0.00 6.01 363 12.54
07/31 09:00 0.00 5.95 351 12.65
07/31 10:00 0.00 5.99 359 12.89
07/31 11:00 0.00 6.00 361 13.42
07/31 12:00 0.00 5.99 359 13.42
07/31 13:00 0.00 5.96 353 13.36
07/31 14:00 0.00 5.99 359 13.36
07/31 15:00 0.00 5.99 359 13.36
07/31 16:00 0.00 6.01 363 13.30
07/31 17:00 0.00 6.00 361 13.30
07/31 18:00 0.00 5.99 359 13.12
07/31 19:00 0.00 5.98 357 13.18
07/31 20:00 0.00 5.98 357 12.89
07/31 21:00 0.00 5.98 357 12.77
07/31 22:00 0.00 5.99 359 12.71
07/31 23:00 ---- ---- ---- ----
Data processed at Thu 01Aug2024 04:28 GMT

Parsing this webpage?

Checkout our new Data API! CWMSDataAPI (CDA)

Timeseries IDs (TSIDs)

TSIDs used from left to right in the data table
SYRA.Precip-Inc.Total.1Hour.1Hour.Ccp-Rev
SYRA.Stage.Inst.1Hour.0.Ccp-Rev
SYRA.Flow.Inst.1Hour.0.Ccp-Rev
SYRA.Volt-Battery Load.Inst.1Hour.0.Ccp-Rev

                            

All information presented herein is the property of the government of the United States of America and may be revised or deleted at any time without prior notice. Dissemination of this information without the expressed written consent of the Public Affairs Office, Tulsa District U.S. Army Corps of Engineers is strictly prohibited. These data are gathered electronically and, as presented, have NOT undergone any form of quality control. These data are NOT guaranteed to be valid or correct.